Time;durP1;ratioP1;P1;durP2;ratioP2;P2;SDS_P1;SDS_P2;PMS_P1;PMS_P2;Temp;Humidity;BMP_temperature;BMP_pressure;BME280_temperature;BME280_humidity;BME280_pressure;Samples;Min_cycle;Max_cycle;Signal;HPM_P1;HPM_P2
2022/10/20 00:02:22;;;;;;;4.45;2.13;;;;;;;;;;5077284;28;20908;-82
2022/10/20 00:04:52;;;;;;;6.13;2.08;;;;;;;;;;5079479;28;20402;-82
2022/10/20 00:07:24;;;;;;;4.37;2.10;;;;;;;;;;5084652;28;20815;-81
2022/10/20 00:09:57;;;;;;;4.50;2.20;;;;;;;;;;5093323;28;20414;-81
2022/10/20 00:12:30;;;;;;;4.80;2.20;;;;;;;;;;5086759;28;20428;-81
2022/10/20 00:14:57;;;;;;;4.47;2.20;;;;;;;;;;5086078;28;20914;-81
2022/10/20 00:17:30;;;;;;;4.60;2.25;;;;;;;;;;5082181;28;20425;-82
2022/10/20 00:19:59;;;;;;;5.55;2.53;;;;;;;;;;5077685;28;20438;-82
2022/10/20 00:22:27;;;;;;;6.38;2.50;;;;;;;;;;5080337;28;20434;-83
2022/10/20 00:25:00;;;;;;;4.32;2.30;;;;;;;;;;5081844;28;20438;-81
2022/10/20 00:27:33;;;;;;;4.72;2.40;;;;;;;;;;5084238;28;20425;-82
2022/10/20 00:30:06;;;;;;;4.90;2.20;;;;;;;;;;5085569;28;20416;-81
2022/10/20 00:32:34;;;;;;;4.85;2.20;;;;;;;;;;5083971;28;20958;-82
2022/10/20 00:35:03;;;;;;;7.83;2.30;;;;;;;;;;5082723;28;20427;-81
2022/10/20 00:37:30;;;;;;;5.55;2.53;;;;;;;;;;5080300;28;20426;-82
2022/10/20 00:40:04;;;;;;;6.00;2.80;;;;;;;;;;5082689;28;20418;-82
2022/10/20 00:42:31;;;;;;;5.47;2.60;;;;;;;;;;5080301;28;20425;-83
2022/10/20 00:45:00;;;;;;;4.60;2.50;;;;;;;;;;5080277;28;20439;-81
2022/10/20 00:47:35;;;;;;;6.85;2.60;;;;;;;;;;5079344;27;20422;-83
2022/10/20 00:50:12;;;;;;;5.40;2.60;;;;;;;;;;5073449;28;20922;-81
2022/10/20 00:52:45;;;;;;;5.35;2.53;;;;;;;;;;5072400;28;20423;-81
2022/10/20 00:55:16;;;;;;;4.97;2.42;;;;;;;;;;5082212;28;20421;-81
2022/10/20 00:57:50;;;;;;;5.07;2.50;;;;;;;;;;5076285;28;20424;-81
2022/10/20 01:00:23;;;;;;;5.65;2.72;;;;;;;;;;5079408;28;20422;-81
2022/10/20 01:02:57;;;;;;;5.47;2.78;;;;;;;;;;5081622;28;20420;-83
2022/10/20 01:05:27;;;;;;;6.85;2.60;;;;;;;;;;5078000;28;20430;-81
2022/10/20 01:08:00;;;;;;;4.70;2.40;;;;;;;;;;5086896;28;20747;-81
2022/10/20 01:10:32;;;;;;;4.60;2.60;;;;;;;;;;5078510;28;20447;-81
2022/10/20 01:13:02;;;;;;;4.95;2.50;;;;;;;;;;5080988;28;20429;-81
2022/10/20 01:15:36;;;;;;;6.28;2.70;;;;;;;;;;5085759;28;20411;-84
2022/10/20 01:18:12;;;;;;;6.03;2.60;;;;;;;;;;5083089;28;21031;-82
2022/10/20 01:20:51;;;;;;;5.97;2.70;;;;;;;;;;5078058;28;20426;-83
2022/10/20 01:23:48;;;;;;;5.00;2.55;;;;;;;;;;5089082;28;20414;-81
2022/10/20 01:26:28;;;;;;;7.90;2.70;;;;;;;;;;5031355;28;20426;-81
2022/10/20 01:29:05;;;;;;;5.03;2.42;;;;;;;;;;5081673;28;20420;-83
2022/10/20 01:31:41;;;;;;;5.78;2.58;;;;;;;;;;5076148;28;20424;-81
2022/10/20 01:34:11;;;;;;;6.45;2.67;;;;;;;;;;5070743;28;20796;-83
2022/10/20 01:36:40;;;;;;;4.95;2.20;;;;;;;;;;5075333;28;20426;-82
2022/10/20 01:39:16;;;;;;;6.68;2.63;;;;;;;;;;5087958;28;20755;-82
2022/10/20 01:41:50;;;;;;;5.60;2.25;;;;;;;;;;5076951;28;20761;-82
2022/10/20 01:44:26;;;;;;;6.00;2.60;;;;;;;;;;5081735;28;20430;-81
2022/10/20 01:47:00;;;;;;;4.60;2.20;;;;;;;;;;5078340;28;20411;-82
2022/10/20 01:49:32;;;;;;;5.35;2.42;;;;;;;;;;5074830;28;20906;-82
2022/10/20 01:52:05;;;;;;;4.40;2.20;;;;;;;;;;5075418;28;20454;-82
2022/10/20 01:54:38;;;;;;;5.65;2.30;;;;;;;;;;5082038;28;20421;-81
2022/10/20 01:57:12;;;;;;;4.45;2.33;;;;;;;;;;5075779;28;20420;-81
2022/10/20 01:59:58;;;;;;;4.55;2.50;;;;;;;;;;5074670;28;20427;-83
2022/10/20 02:02:42;;;;;;;4.80;2.40;;;;;;;;;;5082085;28;20402;-82
2022/10/20 02:05:18;;;;;;;6.90;2.22;;;;;;;;;;5080460;28;20431;-82
2022/10/20 02:07:46;;;;;;;6.32;2.25;;;;;;;;;;5078839;28;20572;-83
2022/10/20 02:10:17;;;;;;;4.97;2.13;;;;;;;;;;5083994;28;20424;-83
2022/10/20 02:12:51;;;;;;;4.53;2.30;;;;;;;;;;5077883;28;20431;-82
2022/10/20 02:15:22;;;;;;;6.28;2.50;;;;;;;;;;5079718;28;20412;-82
2022/10/20 02:17:58;;;;;;;4.18;2.20;;;;;;;;;;5070486;28;20426;-81
2022/10/20 02:20:31;;;;;;;4.18;2.25;;;;;;;;;;5087654;28;20771;-82
2022/10/20 02:23:06;;;;;;;5.25;2.35;;;;;;;;;;5079693;28;20936;-82
2022/10/20 02:25:39;;;;;;;4.95;2.40;;;;;;;;;;5070997;28;20942;-82
2022/10/20 02:28:13;;;;;;;5.72;2.10;;;;;;;;;;5074934;28;20768;-82
2022/10/20 02:30:47;;;;;;;4.28;2.40;;;;;;;;;;5091601;28;20494;-82
2022/10/20 02:33:16;;;;;;;6.47;2.30;;;;;;;;;;5073254;28;20423;-81
2022/10/20 02:35:49;;;;;;;4.63;2.38;;;;;;;;;;5083885;28;20415;-82
2022/10/20 02:38:17;;;;;;;5.38;2.40;;;;;;;;;;5091907;28;20434;-81
2022/10/20 02:40:45;;;;;;;4.28;2.40;;;;;;;;;;5072850;28;20415;-81
2022/10/20 02:43:17;;;;;;;4.25;2.25;;;;;;;;;;5079589;28;20435;-82
2022/10/20 02:45:51;;;;;;;5.22;2.67;;;;;;;;;;5068490;28;20878;-83
2022/10/20 02:48:24;;;;;;;5.65;2.75;;;;;;;;;;5081298;28;20425;-82
2022/10/20 02:50:57;;;;;;;6.55;2.70;;;;;;;;;;5076976;28;20950;-82
2022/10/20 02:53:26;;;;;;;3.97;2.30;;;;;;;;;;5080017;28;20772;-81
2022/10/20 02:55:54;;;;;;;6.65;2.60;;;;;;;;;;5089907;28;20416;-83
2022/10/20 02:58:27;;;;;;;5.15;2.50;;;;;;;;;;5086159;28;20826;-81
2022/10/20 03:01:01;;;;;;;5.40;2.30;;;;;;;;;;5080238;28;20425;-82
2022/10/20 03:03:29;;;;;;;6.23;2.50;;;;;;;;;;5081039;28;20433;-81
2022/10/20 03:06:06;;;;;;;5.22;2.40;;;;;;;;;;5077989;28;20431;-81
2022/10/20 03:08:34;;;;;;;5.23;2.57;;;;;;;;;;5090604;28;20426;-82
2022/10/20 03:11:07;;;;;;;6.68;2.40;;;;;;;;;;5071705;28;20435;-82
2022/10/20 03:13:40;;;;;;;4.57;2.50;;;;;;;;;;5079480;28;20429;-81
2022/10/20 03:16:14;;;;;;;6.28;2.60;;;;;;;;;;5080561;28;20429;-82
2022/10/20 03:18:42;;;;;;;5.30;2.75;;;;;;;;;;5077610;28;20420;-81
2022/10/20 03:21:14;;;;;;;4.65;2.33;;;;;;;;;;5081175;28;20421;-83
2022/10/20 03:23:47;;;;;;;5.40;2.60;;;;;;;;;;5084993;28;20778;-81
2022/10/20 03:26:15;;;;;;;4.77;2.50;;;;;;;;;;5080216;28;20434;-81
2022/10/20 03:28:43;;;;;;;4.80;2.72;;;;;;;;;;5081031;28;20406;-82
2022/10/20 03:31:17;;;;;;;9.43;2.80;;;;;;;;;;5080290;28;20954;-81
2022/10/20 03:33:50;;;;;;;5.73;2.80;;;;;;;;;;5084756;28;20498;-82
2022/10/20 03:36:23;;;;;;;5.23;2.90;;;;;;;;;;5077493;28;20432;-82
2022/10/20 03:38:51;;;;;;;10.70;3.50;;;;;;;;;;5080414;28;20433;-83
2022/10/20 03:41:23;;;;;;;7.18;3.30;;;;;;;;;;5080435;28;20418;-81
2022/10/20 03:43:56;;;;;;;6.40;3.00;;;;;;;;;;5086169;28;21054;-81
2022/10/20 03:46:30;;;;;;;6.35;2.78;;;;;;;;;;5079024;28;20430;-81
2022/10/20 03:48:58;;;;;;;6.18;2.72;;;;;;;;;;5078836;28;20426;-82
2022/10/20 03:51:26;;;;;;;9.93;2.80;;;;;;;;;;5077968;28;20431;-82
2022/10/20 03:53:58;;;;;;;6.55;2.67;;;;;;;;;;5076891;28;20419;-82
2022/10/20 03:56:26;;;;;;;4.93;2.78;;;;;;;;;;5081661;28;20433;-82
2022/10/20 03:58:59;;;;;;;7.47;2.75;;;;;;;;;;5087335;28;20421;-82
2022/10/20 04:01:34;;;;;;;6.15;2.70;;;;;;;;;;5075809;28;20424;-82
2022/10/20 04:04:07;;;;;;;6.65;2.88;;;;;;;;;;5085342;28;20416;-82
2022/10/20 04:06:40;;;;;;;7.45;3.20;;;;;;;;;;5086937;28;20434;-83
2022/10/20 04:09:07;;;;;;;6.95;3.22;;;;;;;;;;5087131;28;20426;-82
2022/10/20 04:11:40;;;;;;;6.68;2.85;;;;;;;;;;5085946;28;20426;-82
2022/10/20 04:14:13;;;;;;;6.70;2.78;;;;;;;;;;5078347;28;21037;-82
2022/10/20 04:16:42;;;;;;;6.50;2.83;;;;;;;;;;5083898;28;20408;-84
2022/10/20 04:19:15;;;;;;;5.10;2.70;;;;;;;;;;5089103;28;20459;-83
2022/10/20 04:21:47;;;;;;;5.50;2.80;;;;;;;;;;5091898;28;20519;-83
2022/10/20 04:24:20;;;;;;;6.63;2.80;;;;;;;;;;5079374;28;20435;-82
2022/10/20 04:26:53;;;;;;;9.33;3.00;;;;;;;;;;5082603;28;20428;-82
2022/10/20 04:29:26;;;;;;;6.10;2.80;;;;;;;;;;5084496;28;20417;-83
2022/10/20 04:32:00;;;;;;;7.13;3.20;;;;;;;;;;5079414;28;20789;-82
2022/10/20 04:34:33;;;;;;;5.40;2.80;;;;;;;;;;5079562;28;20424;-82
2022/10/20 04:37:00;;;;;;;5.13;2.60;;;;;;;;;;5077211;28;20423;-83
2022/10/20 04:39:33;;;;;;;6.07;2.95;;;;;;;;;;5087363;28;20423;-81
2022/10/20 04:42:06;;;;;;;4.88;2.70;;;;;;;;;;5089667;28;20423;-82
2022/10/20 04:44:34;;;;;;;5.85;2.80;;;;;;;;;;5071187;28;20880;-81
2022/10/20 04:47:08;;;;;;;5.13;2.63;;;;;;;;;;5071754;28;20416;-83
2022/10/20 04:49:36;;;;;;;6.07;3.20;;;;;;;;;;5078433;28;20415;-82
2022/10/20 04:52:08;;;;;;;8.05;3.20;;;;;;;;;;5087175;28;20426;-84
2022/10/20 04:54:41;;;;;;;6.28;3.03;;;;;;;;;;5107934;28;20415;-84
2022/10/20 04:57:14;;;;;;;5.85;3.00;;;;;;;;;;5112820;28;20756;-84
2022/10/20 04:59:41;;;;;;;7.22;3.35;;;;;;;;;;5087765;28;20446;-83
2022/10/20 05:02:11;;;;;;;5.13;2.88;;;;;;;;;;5075774;28;20907;-82
2022/10/20 05:04:38;;;;;;;5.63;3.00;;;;;;;;;;5071523;28;20422;-82
2022/10/20 05:07:06;;;;;;;7.05;3.15;;;;;;;;;;5071109;28;20427;-82
2022/10/20 05:09:39;;;;;;;7.45;2.97;;;;;;;;;;5087495;28;20898;-81
2022/10/20 05:12:07;;;;;;;7.40;3.38;;;;;;;;;;5091078;28;20422;-81
2022/10/20 05:14:40;;;;;;;6.57;3.05;;;;;;;;;;5087536;28;20890;-82
2022/10/20 05:17:07;;;;;;;5.85;3.13;;;;;;;;;;5104257;28;20412;-82
2022/10/20 05:19:37;;;;;;;6.22;3.35;;;;;;;;;;5112280;28;20773;-82
2022/10/20 05:22:04;;;;;;;6.43;3.53;;;;;;;;;;5110740;28;20412;-82
2022/10/20 05:24:37;;;;;;;7.40;3.40;;;;;;;;;;5109177;28;20420;-82
2022/10/20 05:27:05;;;;;;;6.43;3.38;;;;;;;;;;5098040;28;20418;-81
2022/10/20 05:29:38;;;;;;;7.63;3.30;;;;;;;;;;5091045;28;20398;-81
2022/10/20 05:32:10;;;;;;;7.25;3.28;;;;;;;;;;5076018;28;20434;-81
2022/10/20 05:34:40;;;;;;;8.57;3.20;;;;;;;;;;5070671;28;20876;-82
2022/10/20 05:37:12;;;;;;;10.07;3.58;;;;;;;;;;5070519;28;20420;-81
2022/10/20 05:39:45;;;;;;;6.35;3.03;;;;;;;;;;5070169;28;20792;-81
2022/10/20 05:42:18;;;;;;;6.47;3.30;;;;;;;;;;5076088;28;20418;-81
2022/10/20 05:44:51;;;;;;;9.50;3.60;;;;;;;;;;5080852;28;20419;-81
2022/10/20 05:47:23;;;;;;;7.77;3.33;;;;;;;;;;5071307;28;20848;-82
2022/10/20 05:49:57;;;;;;;7.40;3.40;;;;;;;;;;5071618;28;20407;-81
2022/10/20 05:52:30;;;;;;;6.68;3.08;;;;;;;;;;5070369;28;21054;-81
2022/10/20 05:54:59;;;;;;;6.30;3.20;;;;;;;;;;5070567;28;20419;-81
2022/10/20 05:57:31;;;;;;;6.47;3.05;;;;;;;;;;5070150;28;20429;-81
2022/10/20 06:00:05;;;;;;;6.25;3.05;;;;;;;;;;5081602;28;20429;-81
2022/10/20 06:02:40;;;;;;;8.48;3.38;;;;;;;;;;5089668;28;20409;-80
2022/10/20 06:05:15;;;;;;;8.02;3.28;;;;;;;;;;5090090;28;20422;-81
2022/10/20 06:07:47;;;;;;;6.57;3.38;;;;;;;;;;5077172;28;20777;-81
2022/10/20 06:10:20;;;;;;;6.10;3.13;;;;;;;;;;5085749;28;20936;-83
2022/10/20 06:12:53;;;;;;;7.38;3.17;;;;;;;;;;5090714;28;20407;-81
2022/10/20 06:15:26;;;;;;;6.50;3.35;;;;;;;;;;5075085;28;20453;-82
2022/10/20 06:17:58;;;;;;;6.22;3.15;;;;;;;;;;5076944;28;20434;-82
2022/10/20 06:20:28;;;;;;;10.07;3.55;;;;;;;;;;5084968;28;20418;-84
2022/10/20 06:22:55;;;;;;;8.52;3.60;;;;;;;;;;5087099;28;20435;-82
2022/10/20 06:25:28;;;;;;;9.00;3.40;;;;;;;;;;5090653;28;20464;-81
2022/10/20 06:27:56;;;;;;;7.82;3.30;;;;;;;;;;5079306;28;20423;-82
2022/10/20 06:30:29;;;;;;;9.20;3.30;;;;;;;;;;5089778;28;20430;-81
2022/10/20 06:32:57;;;;;;;7.23;3.40;;;;;;;;;;5082361;28;20526;-80
2022/10/20 06:35:32;;;;;;;7.50;3.30;;;;;;;;;;5089213;28;20466;-82
2022/10/20 06:37:59;;;;;;;7.28;3.25;;;;;;;;;;5082221;28;20438;-82
2022/10/20 06:40:33;;;;;;;7.75;3.05;;;;;;;;;;5094738;28;20417;-81
2022/10/20 06:43:06;;;;;;;6.72;3.30;;;;;;;;;;5085836;28;20436;-81
2022/10/20 06:45:33;;;;;;;5.93;3.28;;;;;;;;;;5090328;28;20419;-81
2022/10/20 06:48:06;;;;;;;5.15;2.47;;;;;;;;;;5095423;28;20500;-81
2022/10/20 06:50:34;;;;;;;;;;;;;;;;;;5091830;28;20052;-81
2022/10/20 06:53:08;;;;;;;3.30;1.88;;;;;;;;;;5090376;28;19927;-81
2022/10/20 06:55:40;;;;;;;4.63;2.30;;;;;;;;;;5085015;28;20043;-82
2022/10/20 06:58:08;;;;;;;;;;;;;;;;;;5076231;28;20045;-81
2022/10/20 07:00:36;;;;;;;9.48;2.30;;;;;;;;;;5093712;28;19927;-81
2022/10/20 07:03:03;;;;;;;;;;;;;;;;;;5092227;28;20048;-81
2022/10/20 07:05:36;;;;;;;5.00;2.33;;;;;;;;;;5078786;28;20315;-80
2022/10/20 07:08:03;;;;;;;;;;;;;;;;;;5090221;28;20048;-80
2022/10/20 07:10:37;;;;;;;4.88;2.00;;;;;;;;;;5085108;28;19926;-81
2022/10/20 07:13:10;;;;;;;7.20;2.30;;;;;;;;;;5087837;28;20789;-80
2022/10/20 07:15:43;;;;;;;4.68;2.13;;;;;;;;;;5088506;28;20054;-81
2022/10/20 07:18:16;;;;;;;6.15;2.35;;;;;;;;;;5072227;28;20412;-83
2022/10/20 07:20:48;;;;;;;5.82;2.42;;;;;;;;;;5081452;28;20045;-81
2022/10/20 07:23:16;;;;;;;;;;;;;;;;;;5059501;28;20083;-84
2022/10/20 07:25:43;;;;;;;;;;;;;;;;;;5064454;28;19928;-85
2022/10/20 07:28:20;;;;;;;5.40;2.35;;;;;;;;;;5080972;28;19925;-82
2022/10/20 07:30:53;;;;;;;6.17;2.60;;;;;;;;;;5064142;28;20528;-80
2022/10/20 07:33:26;;;;;;;4.80;2.28;;;;;;;;;;5062543;28;20036;-80
2022/10/20 07:35:59;;;;;;;5.45;2.42;;;;;;;;;;5064487;28;20059;-83
2022/10/20 07:38:26;;;;;;;;;;;;;;;;;;5062458;28;20067;-84
2022/10/20 07:41:01;;;;;;;3.38;1.83;;;;;;;;;;5062311;28;20309;-84
2022/10/20 07:43:35;;;;;;;4.28;1.92;;;;;;;;;;5062810;28;20090;-84
2022/10/20 07:46:08;;;;;;;10.23;2.70;;;;;;;;;;5065315;28;20083;-83
2022/10/20 07:48:41;;;;;;;5.03;2.50;;;;;;;;;;5063157;28;20520;-83
2022/10/20 07:51:13;;;;;;;5.07;2.35;;;;;;;;;;5061137;28;20060;-83
2022/10/20 07:53:40;;;;;;;5.30;2.33;;;;;;;;;;5061830;28;20695;-81
2022/10/20 07:56:08;;;;;;;;;;;;;;;;;;5064776;28;20060;-81
2022/10/20 07:58:42;;;;;;;3.83;2.00;;;;;;;;;;5071243;28;19935;-81
2022/10/20 08:01:15;;;;;;;5.28;2.28;;;;;;;;;;5065568;28;20954;-80
2022/10/20 08:03:48;;;;;;;4.30;2.15;;;;;;;;;;5060730;28;20048;-85
2022/10/20 08:06:15;;;;;;;;;;;;;;;;;;5068373;28;20056;-84
2022/10/20 08:08:43;;;;;;;;;;;;;;;;;;5060455;28;19928;-84
2022/10/20 08:11:10;;;;;;;;;;;;;;;;;;5066506;28;20282;-81
2022/10/20 08:13:44;;;;;;;5.63;2.20;;;;;;;;;;5061721;28;21370;-82
2022/10/20 08:16:18;;;;;;;4.38;2.10;;;;;;;;;;5057515;28;20801;-82
2022/10/20 08:18:58;;;;;;;5.30;2.15;;;;;;;;;;5057179;28;20055;-83
2022/10/20 08:21:29;;;;;;;7.28;2.50;;;;;;;;;;5046557;28;21019;-84
2022/10/20 08:23:57;;;;;;;;;;;;;;;;;;5063726;28;20044;-82
2022/10/20 08:26:24;;;;;;;;;;;;;;;;;;5061106;28;20875;-81
2022/10/20 08:28:58;;;;;;;4.38;2.10;;;;;;;;;;5061792;28;20403;-84
2022/10/20 08:31:31;;;;;;;6.88;2.30;;;;;;;;;;5059000;28;20044;-82
2022/10/20 08:34:03;;;;;;;4.47;2.10;;;;;;;;;;5058386;28;20412;-84
2022/10/20 08:36:36;;;;;;;3.83;2.05;;;;;;;;;;5083021;28;20051;-82
2022/10/20 08:39:04;;;;;;;;;;;;;;;;;;5070458;28;20126;-80
2022/10/20 08:41:32;;;;;;;;;;;;;;;;;;5060795;28;20716;-81
2022/10/20 08:44:07;;;;;;;6.22;2.08;;;;;;;;;;5056465;28;19927;-82
2022/10/20 08:46:36;;;;;;;5.63;2.90;;;;;;;;;;5063460;28;21298;-81
2022/10/20 08:49:17;;;;;;;5.30;2.47;;;;;;;;;;5058604;28;20052;-84
2022/10/20 08:51:50;;;;;;;5.28;2.53;;;;;;;;;;5062430;28;20051;-82
2022/10/20 08:54:23;;;;;;;4.07;2.42;;;;;;;;;;5066603;28;20488;-82
2022/10/20 08:56:55;;;;;;;5.82;2.72;;;;;;;;;;5060308;28;20855;-83
2022/10/20 08:59:33;;;;;;;5.82;2.85;;;;;;;;;;5062647;28;20052;-81
2022/10/20 09:02:02;;;;;;;6.18;3.03;;;;;;;;;;5058948;28;20057;-83
2022/10/20 09:04:36;;;;;;;5.53;2.20;;;;;;;;;;5058814;28;20194;-81
2022/10/20 09:07:16;;;;;;;5.97;2.67;;;;;;;;;;5056281;28;20418;-83
2022/10/20 09:09:49;;;;;;;7.18;3.08;;;;;;;;;;5053016;28;20060;-82
2022/10/20 09:12:17;;;;;;;4.97;2.20;;;;;;;;;;5047799;28;20053;-83
2022/10/20 09:14:46;;;;;;;4.05;2.33;;;;;;;;;;5050097;28;20062;-82
2022/10/20 09:17:15;;;;;;;3.80;2.03;;;;;;;;;;5054607;28;20710;-81
2022/10/20 09:19:45;;;;;;;5.90;2.25;;;;;;;;;;5050148;28;20060;-83
2022/10/20 09:22:26;;;;;;;8.38;2.70;;;;;;;;;;5058060;28;20063;-81
2022/10/20 09:24:59;;;;;;;4.72;2.13;;;;;;;;;;5052042;28;20044;-82
2022/10/20 09:27:31;;;;;;;8.18;2.40;;;;;;;;;;5047346;28;20069;-84
2022/10/20 09:30:16;;;;;;;8.05;2.15;;;;;;;;;;5066379;28;20774;-82
2022/10/20 09:32:44;;;;;;;4.20;2.08;;;;;;;;;;5053769;28;20059;-83
2022/10/20 09:35:18;;;;;;;3.50;1.90;;;;;;;;;;5058976;28;20053;-82
2022/10/20 09:37:50;;;;;;;5.13;2.10;;;;;;;;;;5059431;28;20051;-84
2022/10/20 09:40:25;;;;;;;5.60;2.17;;;;;;;;;;5052274;28;20048;-82
2022/10/20 09:43:01;;;;;;;4.10;1.90;;;;;;;;;;5057150;28;20045;-81
2022/10/20 09:45:37;;;;;;;4.88;2.00;;;;;;;;;;5051615;28;20052;-83
2022/10/20 09:48:20;;;;;;;6.78;2.20;;;;;;;;;;5053927;28;20052;-82
2022/10/20 09:50:50;;;;;;;9.18;1.92;;;;;;;;;;5052173;28;20496;-83
2022/10/20 09:53:25;;;;;;;6.70;2.22;;;;;;;;;;5061812;28;20045;-82
2022/10/20 09:55:53;;;;;;;4.40;2.08;;;;;;;;;;5055060;28;20075;-83
2022/10/20 09:58:22;;;;;;;5.45;1.88;;;;;;;;;;5056963;28;20063;-82
2022/10/20 10:00:59;;;;;;;6.65;2.15;;;;;;;;;;5049395;28;20044;-81
2022/10/20 10:03:27;;;;;;;2.88;1.90;;;;;;;;;;5057946;28;20051;-83
2022/10/20 10:06:00;;;;;;;5.78;2.00;;;;;;;;;;5061279;28;20071;-84
2022/10/20 10:08:41;;;;;;;6.05;2.13;;;;;;;;;;5059470;28;20059;-82
2022/10/20 10:11:14;;;;;;;4.78;2.13;;;;;;;;;;5060742;28;21694;-82
2022/10/20 10:13:43;;;;;;;4.60;1.95;;;;;;;;;;5056183;28;20437;-81
2022/10/20 10:16:19;;;;;;;5.18;2.17;;;;;;;;;;5055941;28;20064;-84
2022/10/20 10:18:57;;;;;;;4.45;2.13;;;;;;;;;;5051768;28;20437;-83
2022/10/20 10:21:24;;;;;;;3.90;2.00;;;;;;;;;;5043484;28;20416;-84
2022/10/20 10:23:59;;;;;;;4.20;2.15;;;;;;;;;;5044201;28;20063;-81
2022/10/20 10:26:33;;;;;;;4.72;2.08;;;;;;;;;;5049304;28;21435;-82
2022/10/20 10:29:01;;;;;;;5.10;2.20;;;;;;;;;;5050744;28;20044;-82
2022/10/20 10:31:35;;;;;;;5.43;2.08;;;;;;;;;;5052993;28;20045;-83
2022/10/20 10:34:24;;;;;;;3.85;1.85;;;;;;;;;;5051397;28;20416;-82
2022/10/20 10:36:52;;;;;;;7.00;2.30;;;;;;;;;;5053703;28;20706;-85
2022/10/20 10:39:25;;;;;;;4.03;1.98;;;;;;;;;;5056335;28;20052;-83
2022/10/20 10:42:03;;;;;;;4.30;2.10;;;;;;;;;;5051885;28;20811;-82
2022/10/20 10:44:43;;;;;;;3.92;1.90;;;;;;;;;;5050297;28;20071;-82
2022/10/20 10:47:20;;;;;;;6.10;1.90;;;;;;;;;;5056572;28;20526;-83
2022/10/20 10:49:57;;;;;;;4.75;2.20;;;;;;;;;;5048041;28;20131;-81
2022/10/20 10:52:36;;;;;;;2.63;1.60;;;;;;;;;;5065532;28;20047;-81
2022/10/20 10:55:13;;;;;;;4.78;1.85;;;;;;;;;;5070051;28;20409;-83
2022/10/20 10:57:51;;;;;;;4.05;1.92;;;;;;;;;;5055935;28;20052;-81
2022/10/20 11:00:21;;;;;;;4.53;2.00;;;;;;;;;;5052444;28;20488;-83
2022/10/20 11:03:10;;;;;;;6.53;2.22;;;;;;;;;;5052802;28;20055;-81
2022/10/20 11:05:57;;;;;;;8.23;2.30;;;;;;;;;;5055378;28;20056;-83
2022/10/20 11:08:34;;;;;;;5.57;2.55;;;;;;;;;;5048814;28;20666;-83
2022/10/20 11:11:11;;;;;;;7.83;2.77;;;;;;;;;;5056100;28;20071;-81
2022/10/20 11:13:47;;;;;;;4.83;2.07;;;;;;;;;;5050450;28;21188;-81
2022/10/20 11:16:24;;;;;;;4.82;2.13;;;;;;;;;;5062016;28;20308;-82
2022/10/20 11:19:07;;;;;;;4.28;2.30;;;;;;;;;;5049859;28;20051;-82
2022/10/20 11:21:42;;;;;;;6.45;2.15;;;;;;;;;;5064144;28;20040;-81
2022/10/20 11:24:19;;;;;;;3.83;1.75;;;;;;;;;;5046676;28;20052;-83
2022/10/20 11:26:53;;;;;;;4.32;1.90;;;;;;;;;;5057061;28;20052;-83
2022/10/20 11:29:26;;;;;;;5.65;2.08;;;;;;;;;;5050730;28;20052;-82
2022/10/20 11:32:05;;;;;;;4.30;1.77;;;;;;;;;;5061066;28;20051;-82
2022/10/20 11:34:35;;;;;;;7.03;2.00;;;;;;;;;;5053356;28;20079;-83
2022/10/20 11:37:13;;;;;;;6.93;2.03;;;;;;;;;;5057101;28;20059;-82
2022/10/20 11:39:49;;;;;;;5.50;1.92;;;;;;;;;;5059664;28;20048;-81
2022/10/20 11:42:25;;;;;;;4.23;1.80;;;;;;;;;;5056604;28;20051;-83
2022/10/20 11:45:01;;;;;;;3.90;2.13;;;;;;;;;;5055596;28;20641;-81
2022/10/20 11:47:32;;;;;;;6.95;2.03;;;;;;;;;;5052370;28;20052;-82
2022/10/20 11:50:07;;;;;;;4.40;2.17;;;;;;;;;;5051917;28;20075;-84
2022/10/20 11:52:57;;;;;;;4.38;2.13;;;;;;;;;;5058737;28;20044;-82
2022/10/20 11:55:43;;;;;;;6.50;1.90;;;;;;;;;;5050848;28;20067;-83
2022/10/20 11:58:33;;;;;;;6.10;2.50;;;;;;;;;;5051462;28;20060;-82
2022/10/20 12:01:15;;;;;;;4.45;2.28;;;;;;;;;;5039759;28;20059;-84
2022/10/20 12:03:59;;;;;;;3.55;1.90;;;;;;;;;;5061586;28;20040;-83
2022/10/20 12:06:46;;;;;;;3.97;1.92;;;;;;;;;;5054747;28;20056;-83
2022/10/20 12:09:29;;;;;;;5.60;2.03;;;;;;;;;;5055592;28;20060;-81
2022/10/20 12:12:03;;;;;;;7.78;2.30;;;;;;;;;;5045446;28;20066;-82
2022/10/20 12:14:33;;;;;;;3.00;1.83;;;;;;;;;;5046552;28;20056;-81
2022/10/20 12:17:17;;;;;;;4.85;2.33;;;;;;;;;;5050323;28;20063;-82
2022/10/20 12:19:48;;;;;;;3.38;1.80;;;;;;;;;;5055005;28;20075;-82
2022/10/20 12:22:39;;;;;;;5.18;1.95;;;;;;;;;;5058776;28;20516;-84
2022/10/20 12:25:18;;;;;;;5.75;1.90;;;;;;;;;;5044407;28;20051;-82
2022/10/20 12:28:06;;;;;;;3.35;2.00;;;;;;;;;;5061914;28;20079;-82
2022/10/20 12:30:44;;;;;;;9.13;2.30;;;;;;;;;;5051556;28;20048;-82
2022/10/20 12:33:16;;;;;;;5.50;2.70;;;;;;;;;;5057909;28;20683;-82
2022/10/20 12:35:57;;;;;;;4.85;2.33;;;;;;;;;;5047777;28;20057;-82
2022/10/20 12:38:27;;;;;;;5.10;2.85;;;;;;;;;;5057620;28;20052;-82
2022/10/20 12:41:01;;;;;;;51.45;8.73;;;;;;;;;;5054260;28;20067;-84
2022/10/20 12:43:36;;;;;;;11.68;4.80;;;;;;;;;;5059885;28;20040;-83
2022/10/20 12:46:11;;;;;;;7.30;3.28;;;;;;;;;;5055775;28;20397;-82
2022/10/20 12:48:45;;;;;;;6.43;2.95;;;;;;;;;;5061915;28;20048;-80
2022/10/20 12:51:18;;;;;;;5.05;2.65;;;;;;;;;;5056344;28;20519;-81
2022/10/20 12:53:52;;;;;;;5.68;2.40;;;;;;;;;;5051921;28;20048;-82
2022/10/20 12:56:27;;;;;;;5.10;2.35;;;;;;;;;;5050811;28;20052;-83
2022/10/20 12:59:19;;;;;;;8.02;3.95;;;;;;;;;;5049944;28;21315;-83
2022/10/20 13:02:15;;;;;;;5.97;2.58;;;;;;;;;;5051765;28;20059;-81
2022/10/20 13:04:55;;;;;;;5.20;2.63;;;;;;;;;;5053880;28;20048;-81
2022/10/20 13:07:46;;;;;;;4.47;2.42;;;;;;;;;;5059120;28;20057;-82
2022/10/20 13:10:30;;;;;;;4.82;2.50;;;;;;;;;;5045803;28;20060;-81
2022/10/20 13:13:14;;;;;;;8.25;2.75;;;;;;;;;;5059117;28;20078;-82
2022/10/20 13:15:46;;;;;;;5.53;2.80;;;;;;;;;;5055415;28;20095;-82
2022/10/20 13:18:22;;;;;;;6.63;2.65;;;;;;;;;;5052066;28;20504;-82
2022/10/20 13:20:56;;;;;;;6.32;3.00;;;;;;;;;;5052917;28;20055;-82
2022/10/20 13:23:30;;;;;;;6.00;2.80;;;;;;;;;;5057861;28;21112;-82
2022/10/20 13:26:13;;;;;;;6.15;2.33;;;;;;;;;;5057262;28;20048;-82
2022/10/20 13:28:44;;;;;;;3.88;2.20;;;;;;;;;;5051139;28;20071;-81
2022/10/20 13:31:21;;;;;;;7.68;3.55;;;;;;;;;;5047739;28;20060;-81
2022/10/20 13:34:02;;;;;;;5.15;2.80;;;;;;;;;;5054597;28;20045;-82
2022/10/20 13:36:41;;;;;;;5.28;2.80;;;;;;;;;;5055610;28;20053;-83
2022/10/20 13:39:16;;;;;;;8.25;3.58;;;;;;;;;;5049997;28;20059;-84
2022/10/20 13:41:54;;;;;;;5.38;2.50;;;;;;;;;;5057380;28;20143;-83
2022/10/20 13:44:30;;;;;;;6.90;2.92;;;;;;;;;;5051018;28;20040;-83
2022/10/20 13:47:02;;;;;;;6.45;3.03;;;;;;;;;;5053064;28;20048;-83
2022/10/20 13:49:42;;;;;;;5.35;2.67;;;;;;;;;;5056332;28;20609;-81
2022/10/20 13:52:15;;;;;;;5.15;2.58;;;;;;;;;;5053525;28;20060;-82
2022/10/20 13:54:49;;;;;;;5.47;2.45;;;;;;;;;;5052646;28;20052;-84
2022/10/20 13:57:26;;;;;;;8.93;2.65;;;;;;;;;;5053451;28;20543;-81
2022/10/20 13:59:57;;;;;;;5.65;2.80;;;;;;;;;;5053276;28;20052;-82
2022/10/20 14:02:25;;;;;;;9.43;2.65;;;;;;;;;;5053609;28;20060;-83
2022/10/20 14:05:02;;;;;;;9.23;3.38;;;;;;;;;;5052090;28;20600;-82
2022/10/20 14:07:36;;;;;;;12.50;6.70;;;;;;;;;;5054587;28;20053;-81
2022/10/20 14:10:04;;;;;;;7.10;2.55;;;;;;;;;;5049832;28;20059;-82
2022/10/20 14:12:36;;;;;;;7.53;2.70;;;;;;;;;;5054312;28;20485;-82
2022/10/20 14:15:09;;;;;;;6.55;2.70;;;;;;;;;;5054448;28;20055;-82
2022/10/20 14:17:42;;;;;;;6.65;3.15;;;;;;;;;;5049563;28;20657;-80
2022/10/20 14:20:18;;;;;;;5.80;2.05;;;;;;;;;;5050376;28;20048;-82
2022/10/20 14:22:52;;;;;;;7.82;2.60;;;;;;;;;;5057080;28;20052;-81
2022/10/20 14:25:26;;;;;;;4.40;2.20;;;;;;;;;;5050911;28;20053;-82
2022/10/20 14:27:56;;;;;;;6.43;2.50;;;;;;;;;;5054284;28;20056;-82
2022/10/20 14:30:29;;;;;;;4.55;2.17;;;;;;;;;;5054839;28;20044;-82
2022/10/20 14:33:02;;;;;;;6.20;2.60;;;;;;;;;;5039941;28;20059;-83
2022/10/20 14:35:31;;;;;;;4.68;2.00;;;;;;;;;;5058878;28;20039;-82
2022/10/20 14:38:07;;;;;;;6.63;2.42;;;;;;;;;;5061731;28;20060;-82
2022/10/20 14:40:40;;;;;;;4.82;2.33;;;;;;;;;;5053839;28;20084;-81
2022/10/20 14:43:16;;;;;;;4.18;2.10;;;;;;;;;;5058391;28;20146;-81
2022/10/20 14:45:51;;;;;;;8.27;2.65;;;;;;;;;;5049934;28;20083;-82
2022/10/20 14:58:32;;;;;;;6.93;2.25;;;;;;;;;;4973146;28;20410;-82
2022/10/20 15:01:25;;;;;;;5.43;2.38;;;;;;;;;;4968529;28;20069;-82
2022/10/20 15:04:10;;;;;;;5.28;2.42;;;;;;;;;;4961098;28;20513;-81
2022/10/20 15:06:44;;;;;;;5.43;2.15;;;;;;;;;;4943518;28;20467;-82
2022/10/20 15:09:18;;;;;;;4.82;2.53;;;;;;;;;;4958438;28;20711;-84
2022/10/20 15:11:51;;;;;;;11.80;4.90;;;;;;;;;;4979584;28;20475;-80
2022/10/20 15:14:21;;;;;;;6.03;2.97;;;;;;;;;;4970020;28;20134;-81
2022/10/20 15:16:48;;;;;;;5.53;2.50;;;;;;;;;;4958040;28;20077;-81
2022/10/20 15:19:24;;;;;;;13.85;2.70;;;;;;;;;;4955481;28;20443;-81
2022/10/20 15:22:01;;;;;;;4.85;2.20;;;;;;;;;;4945491;28;20051;-82
2022/10/20 15:24:34;;;;;;;5.35;2.45;;;;;;;;;;4954419;28;20089;-81
2022/10/20 15:27:13;;;;;;;6.20;2.63;;;;;;;;;;4954820;28;20059;-82
2022/10/20 15:29:49;;;;;;;5.07;2.50;;;;;;;;;;4951395;28;20050;-82
2022/10/20 15:32:22;;;;;;;4.55;2.40;;;;;;;;;;4942646;28;20073;-81
2022/10/20 15:34:55;;;;;;;5.13;2.55;;;;;;;;;;4933904;28;20649;-82
2022/10/20 15:37:32;;;;;;;6.47;2.60;;;;;;;;;;4952830;28;20434;-80